Terminal Aerodrome Forecast
Issued by NWS Charleston, WV

Current Version | Previous Version | Text Only | Print | Product List | Glossary Off
Versions: 1 2 3 4 5 6 7 8 9 10 11 12 13 14 15 16 17 18 19 20 21 22 23 24 25 26 27 28 29 30 31 32 33 34

844
FTUS41 KRLX 282110 AAA
TAFPKB
TAF AMD
KPKB 282110Z 2821/2918 25004KT P6SM SCT030 BKN050
     FM290100 00000KT 3SM BR SCT007 OVC015
     FM290500 00000KT 1SM BR SCT002 OVC007
     FM291300 00000KT 4SM BR BKN008
     FM291500 VRB03KT P6SM BKN012
     FM291600 27004KT P6SM VCSH BKN035=

USA.gov is the U.S. government's official web portal to all federal, state and local government web resources and services.